sensor_id;sensor_type;location;lat;lon;timestamp;temperature;humidity
7844;DHT22;3967;48.702;9.326;2022-08-01T00:00:05;23.40;61.90
7844;DHT22;3967;48.702;9.326;2022-08-01T00:02:38;23.40;61.70
7844;DHT22;3967;48.702;9.326;2022-08-01T00:05:06;23.30;62.30
7844;DHT22;3967;48.702;9.326;2022-08-01T00:07:34;23.10;63.00
7844;DHT22;3967;48.702;9.326;2022-08-01T00:10:03;23.40;63.40
7844;DHT22;3967;48.702;9.326;2022-08-01T00:12:29;23.00;62.90
7844;DHT22;3967;48.702;9.326;2022-08-01T00:14:56;23.00;63.60
7844;DHT22;3967;48.702;9.326;2022-08-01T00:17:23;22.90;64.00
7844;DHT22;3967;48.702;9.326;2022-08-01T00:19:49;22.70;64.70
7844;DHT22;3967;48.702;9.326;2022-08-01T00:22:16;22.60;65.50
7844;DHT22;3967;48.702;9.326;2022-08-01T00:24:43;22.50;65.30
7844;DHT22;3967;48.702;9.326;2022-08-01T00:27:10;22.70;65.50
7844;DHT22;3967;48.702;9.326;2022-08-01T00:29:37;22.60;65.10
7844;DHT22;3967;48.702;9.326;2022-08-01T00:32:23;22.60;64.90
7844;DHT22;3967;48.702;9.326;2022-08-01T00:34:50;22.50;65.50
7844;DHT22;3967;48.702;9.326;2022-08-01T00:37:17;22.50;65.70
7844;DHT22;3967;48.702;9.326;2022-08-01T00:39:44;22.60;65.60
7844;DHT22;3967;48.702;9.326;2022-08-01T00:42:12;22.50;65.80
7844;DHT22;3967;48.702;9.326;2022-08-01T00:44:39;22.40;66.30
7844;DHT22;3967;48.702;9.326;2022-08-01T00:47:07;22.30;66.10
7844;DHT22;3967;48.702;9.326;2022-08-01T00:49:34;22.30;66.30
7844;DHT22;3967;48.702;9.326;2022-08-01T00:52:02;22.30;66.70
7844;DHT22;3967;48.702;9.326;2022-08-01T00:54:31;22.30;67.00
7844;DHT22;3967;48.702;9.326;2022-08-01T00:56:59;22.30;67.30
7844;DHT22;3967;48.702;9.326;2022-08-01T00:59:26;22.20;67.40
7844;DHT22;3967;48.702;9.326;2022-08-01T01:01:53;22.10;67.40
7844;DHT22;3967;48.702;9.326;2022-08-01T01:04:22;22.20;67.90
7844;DHT22;3967;48.702;9.326;2022-08-01T01:07:06;22.10;67.50
7844;DHT22;3967;48.702;9.326;2022-08-01T01:09:44;22.20;68.00
7844;DHT22;3967;48.702;9.326;2022-08-01T01:17:59;22.10;68.20
7844;DHT22;3967;48.702;9.326;2022-08-01T01:20:31;22.10;68.10
7844;DHT22;3967;48.702;9.326;2022-08-01T01:23:12;22.20;68.00
7844;DHT22;3967;48.702;9.326;2022-08-01T01:34:20;22.00;68.20
7844;DHT22;3967;48.702;9.326;2022-08-01T01:36:49;21.90;68.50
7844;DHT22;3967;48.702;9.326;2022-08-01T01:39:18;22.00;68.70
7844;DHT22;3967;48.702;9.326;2022-08-01T01:41:46;21.90;69.00
7844;DHT22;3967;48.702;9.326;2022-08-01T01:44:15;22.00;69.00
7844;DHT22;3967;48.702;9.326;2022-08-01T01:46:43;22.00;69.10
7844;DHT22;3967;48.702;9.326;2022-08-01T01:49:10;21.90;69.20
7844;DHT22;3967;48.702;9.326;2022-08-01T01:51:38;21.90;69.40
7844;DHT22;3967;48.702;9.326;2022-08-01T01:54:15;21.80;69.70
7844;DHT22;3967;48.702;9.326;2022-08-01T01:56:42;21.80;70.10
7844;DHT22;3967;48.702;9.326;2022-08-01T01:59:20;21.80;70.10
7844;DHT22;3967;48.702;9.326;2022-08-01T02:01:52;21.80;70.20
7844;DHT22;3967;48.702;9.326;2022-08-01T02:04:32;21.80;70.10
7844;DHT22;3967;48.702;9.326;2022-08-01T02:07:02;21.80;70.10
7844;DHT22;3967;48.702;9.326;2022-08-01T02:09:29;21.60;70.80
7844;DHT22;3967;48.702;9.326;2022-08-01T02:11:58;21.60;71.00
7844;DHT22;3967;48.702;9.326;2022-08-01T02:14:35;21.60;70.90
7844;DHT22;3967;48.702;9.326;2022-08-01T02:17:02;21.60;71.00
7844;DHT22;3967;48.702;9.326;2022-08-01T02:19:33;21.60;70.70
7844;DHT22;3967;48.702;9.326;2022-08-01T02:24:49;21.60;71.20
7844;DHT22;3967;48.702;9.326;2022-08-01T02:27:25;21.60;71.70
7844;DHT22;3967;48.702;9.326;2022-08-01T02:29:53;21.60;71.60
7844;DHT22;3967;48.702;9.326;2022-08-01T02:32:41;21.60;72.00
7844;DHT22;3967;48.702;9.326;2022-08-01T02:35:21;21.60;71.80
7844;DHT22;3967;48.702;9.326;2022-08-01T02:37:50;21.60;71.90
7844;DHT22;3967;48.702;9.326;2022-08-01T02:40:18;21.50;72.10
7844;DHT22;3967;48.702;9.326;2022-08-01T02:42:49;21.50;72.50
7844;DHT22;3967;48.702;9.326;2022-08-01T02:45:24;21.60;72.60
7844;DHT22;3967;48.702;9.326;2022-08-01T02:47:55;21.50;72.60
7844;DHT22;3967;48.702;9.326;2022-08-01T02:50:25;21.50;72.90
7844;DHT22;3967;48.702;9.326;2022-08-01T02:52:55;21.40;73.10
7844;DHT22;3967;48.702;9.326;2022-08-01T02:55:23;21.40;73.20
7844;DHT22;3967;48.702;9.326;2022-08-01T02:57:52;21.30;73.60
7844;DHT22;3967;48.702;9.326;2022-08-01T03:00:26;21.40;73.60
7844;DHT22;3967;48.702;9.326;2022-08-01T03:02:55;21.40;73.70
7844;DHT22;3967;48.702;9.326;2022-08-01T03:05:24;21.30;73.60
7844;DHT22;3967;48.702;9.326;2022-08-01T03:07:53;21.20;74.10
7844;DHT22;3967;48.702;9.326;2022-08-01T03:10:20;21.10;74.50
7844;DHT22;3967;48.702;9.326;2022-08-01T03:12:49;21.20;74.60
7844;DHT22;3967;48.702;9.326;2022-08-01T03:15:17;21.20;74.60
7844;DHT22;3967;48.702;9.326;2022-08-01T03:17:46;21.10;74.80
7844;DHT22;3967;48.702;9.326;2022-08-01T03:20:16;21.20;74.80
7844;DHT22;3967;48.702;9.326;2022-08-01T03:22:44;21.10;75.20
7844;DHT22;3967;48.702;9.326;2022-08-01T03:25:13;21.00;75.30
7844;DHT22;3967;48.702;9.326;2022-08-01T03:27:43;21.10;75.40
7844;DHT22;3967;48.702;9.326;2022-08-01T03:30:12;21.00;75.80
7844;DHT22;3967;48.702;9.326;2022-08-01T03:32:40;21.00;76.10
7844;DHT22;3967;48.702;9.326;2022-08-01T03:35:08;21.00;76.00
7844;DHT22;3967;48.702;9.326;2022-08-01T03:37:45;21.10;76.00
7844;DHT22;3967;48.702;9.326;2022-08-01T03:40:37;21.10;76.20
7844;DHT22;3967;48.702;9.326;2022-08-01T03:43:24;21.10;76.00
7844;DHT22;3967;48.702;9.326;2022-08-01T03:45:55;21.10;76.20
7844;DHT22;3967;48.702;9.326;2022-08-01T03:48:28;21.00;76.40
7844;DHT22;3967;48.702;9.326;2022-08-01T03:50:57;20.90;76.80
7844;DHT22;3967;48.702;9.326;2022-08-01T03:53:30;20.90;77.10
7844;DHT22;3967;48.702;9.326;2022-08-01T03:56:00;20.70;78.70
7844;DHT22;3967;48.702;9.326;2022-08-01T03:58:29;20.70;78.70
7844;DHT22;3967;48.702;9.326;2022-08-01T04:00:57;20.70;78.90
7844;DHT22;3967;48.702;9.326;2022-08-01T04:03:24;20.60;79.20
7844;DHT22;3967;48.702;9.326;2022-08-01T04:05:51;20.70;79.40
7844;DHT22;3967;48.702;9.326;2022-08-01T04:08:18;20.50;79.50
7844;DHT22;3967;48.702;9.326;2022-08-01T04:10:45;20.40;79.70
7844;DHT22;3967;48.702;9.326;2022-08-01T04:13:15;20.30;80.80
7844;DHT22;3967;48.702;9.326;2022-08-01T04:15:42;20.30;80.90
7844;DHT22;3967;48.702;9.326;2022-08-01T04:18:09;20.40;80.80
7844;DHT22;3967;48.702;9.326;2022-08-01T04:20:36;20.20;81.60
7844;DHT22;3967;48.702;9.326;2022-08-01T04:23:03;20.00;83.20
7844;DHT22;3967;48.702;9.326;2022-08-01T04:25:33;20.10;83.30
7844;DHT22;3967;48.702;9.326;2022-08-01T04:28:02;20.30;83.40
7844;DHT22;3967;48.702;9.326;2022-08-01T04:30:33;20.30;83.10
7844;DHT22;3967;48.702;9.326;2022-08-01T04:33:04;20.30;83.00
7844;DHT22;3967;48.702;9.326;2022-08-01T04:35:33;20.20;84.00
7844;DHT22;3967;48.702;9.326;2022-08-01T04:38:25;20.10;84.70
7844;DHT22;3967;48.702;9.326;2022-08-01T04:40:54;20.20;84.80
7844;DHT22;3967;48.702;9.326;2022-08-01T04:43:21;20.30;84.60
7844;DHT22;3967;48.702;9.326;2022-08-01T04:45:50;20.50;84.60
7844;DHT22;3967;48.702;9.326;2022-08-01T04:48:18;20.60;84.80
7844;DHT22;3967;48.702;9.326;2022-08-01T04:50:49;20.70;84.30
7844;DHT22;3967;48.702;9.326;2022-08-01T04:53:18;20.70;84.20
7844;DHT22;3967;48.702;9.326;2022-08-01T04:55:45;20.70;84.30
7844;DHT22;3967;48.702;9.326;2022-08-01T04:58:15;20.70;84.40
7844;DHT22;3967;48.702;9.326;2022-08-01T05:00:45;20.80;84.70
7844;DHT22;3967;48.702;9.326;2022-08-01T05:03:12;20.90;84.70
7844;DHT22;3967;48.702;9.326;2022-08-01T05:05:39;20.90;84.70
7844;DHT22;3967;48.702;9.326;2022-08-01T05:08:05;20.90;85.00
7844;DHT22;3967;48.702;9.326;2022-08-01T05:10:33;21.00;84.90
7844;DHT22;3967;48.702;9.326;2022-08-01T05:13:00;21.00;85.10
7844;DHT22;3967;48.702;9.326;2022-08-01T05:15:26;21.10;85.20
7844;DHT22;3967;48.702;9.326;2022-08-01T05:17:53;21.10;85.70
7844;DHT22;3967;48.702;9.326;2022-08-01T05:20:20;21.00;86.30
7844;DHT22;3967;48.702;9.326;2022-08-01T05:22:47;20.90;86.20
7844;DHT22;3967;48.702;9.326;2022-08-01T05:25:14;20.80;86.70
7844;DHT22;3967;48.702;9.326;2022-08-01T05:27:46;20.80;87.10
7844;DHT22;3967;48.702;9.326;2022-08-01T05:30:16;20.70;87.20
7844;DHT22;3967;48.702;9.326;2022-08-01T05:32:43;20.60;87.10
7844;DHT22;3967;48.702;9.326;2022-08-01T05:35:10;20.50;88.60
7844;DHT22;3967;48.702;9.326;2022-08-01T05:37:37;20.40;89.70
7844;DHT22;3967;48.702;9.326;2022-08-01T05:40:04;20.60;90.20
7844;DHT22;3967;48.702;9.326;2022-08-01T05:42:32;20.60;90.20
7844;DHT22;3967;48.702;9.326;2022-08-01T05:44:58;20.50;89.90
7844;DHT22;3967;48.702;9.326;2022-08-01T05:47:25;20.50;90.20
7844;DHT22;3967;48.702;9.326;2022-08-01T05:49:52;20.60;90.20
7844;DHT22;3967;48.702;9.326;2022-08-01T05:52:18;20.80;89.80
7844;DHT22;3967;48.702;9.326;2022-08-01T05:54:45;20.70;90.30
7844;DHT22;3967;48.702;9.326;2022-08-01T05:57:12;20.90;90.00
7844;DHT22;3967;48.702;9.326;2022-08-01T05:59:40;20.90;90.30
7844;DHT22;3967;48.702;9.326;2022-08-01T06:02:07;21.10;90.10
7844;DHT22;3967;48.702;9.326;2022-08-01T06:04:35;21.30;89.30
7844;DHT22;3967;48.702;9.326;2022-08-01T06:07:02;21.50;88.90
7844;DHT22;3967;48.702;9.326;2022-08-01T06:09:28;21.50;88.70
7844;DHT22;3967;48.702;9.326;2022-08-01T06:11:57;21.80;87.60
7844;DHT22;3967;48.702;9.326;2022-08-01T06:14:24;22.10;86.50
7844;DHT22;3967;48.702;9.326;2022-08-01T06:16:50;22.20;86.30
7844;DHT22;3967;48.702;9.326;2022-08-01T06:19:17;22.20;85.70
7844;DHT22;3967;48.702;9.326;2022-08-01T06:21:44;22.30;85.10
7844;DHT22;3967;48.702;9.326;2022-08-01T06:24:11;22.50;84.80
7844;DHT22;3967;48.702;9.326;2022-08-01T06:26:38;22.50;85.40
7844;DHT22;3967;48.702;9.326;2022-08-01T06:29:04;22.50;84.70
7844;DHT22;3967;48.702;9.326;2022-08-01T06:31:31;22.50;84.80
7844;DHT22;3967;48.702;9.326;2022-08-01T06:33:59;22.60;83.80
7844;DHT22;3967;48.702;9.326;2022-08-01T06:36:26;22.70;83.80
7844;DHT22;3967;48.702;9.326;2022-08-01T06:38:53;23.00;83.40
7844;DHT22;3967;48.702;9.326;2022-08-01T06:41:20;23.20;83.80
7844;DHT22;3967;48.702;9.326;2022-08-01T06:43:46;23.40;83.70
7844;DHT22;3967;48.702;9.326;2022-08-01T06:46:13;23.50;82.90
7844;DHT22;3967;48.702;9.326;2022-08-01T06:48:40;23.60;82.40
7844;DHT22;3967;48.702;9.326;2022-08-01T06:51:07;23.80;82.20
7844;DHT22;3967;48.702;9.326;2022-08-01T06:53:40;24.00;81.30
7844;DHT22;3967;48.702;9.326;2022-08-01T06:56:09;24.10;81.10
7844;DHT22;3967;48.702;9.326;2022-08-01T06:58:36;24.10;81.10
7844;DHT22;3967;48.702;9.326;2022-08-01T07:01:04;24.20;81.00
7844;DHT22;3967;48.702;9.326;2022-08-01T07:03:33;24.50;80.50
7844;DHT22;3967;48.702;9.326;2022-08-01T07:06:21;24.60;79.80
7844;DHT22;3967;48.702;9.326;2022-08-01T07:08:48;24.70;80.10
7844;DHT22;3967;48.702;9.326;2022-08-01T07:11:15;24.90;80.00
7844;DHT22;3967;48.702;9.326;2022-08-01T07:13:42;25.00;79.40
7844;DHT22;3967;48.702;9.326;2022-08-01T07:16:12;24.90;79.60
7844;DHT22;3967;48.702;9.326;2022-08-01T07:18:39;25.20;78.80
7844;DHT22;3967;48.702;9.326;2022-08-01T07:21:07;25.20;78.30
7844;DHT22;3967;48.702;9.326;2022-08-01T07:23:54;25.30;78.50
7844;DHT22;3967;48.702;9.326;2022-08-01T07:26:22;25.30;78.30
7844;DHT22;3967;48.702;9.326;2022-08-01T07:28:48;25.50;78.50
7844;DHT22;3967;48.702;9.326;2022-08-01T07:31:15;25.80;77.90
7844;DHT22;3967;48.702;9.326;2022-08-01T07:33:42;26.10;77.30
7844;DHT22;3967;48.702;9.326;2022-08-01T07:36:17;25.90;76.50
7844;DHT22;3967;48.702;9.326;2022-08-01T07:38:45;26.10;76.80
7844;DHT22;3967;48.702;9.326;2022-08-01T07:41:12;25.90;76.20
7844;DHT22;3967;48.702;9.326;2022-08-01T07:43:39;26.30;76.20
7844;DHT22;3967;48.702;9.326;2022-08-01T07:46:11;26.80;73.50
7844;DHT22;3967;48.702;9.326;2022-08-01T07:48:37;26.90;72.20
7844;DHT22;3967;48.702;9.326;2022-08-01T07:51:04;27.10;72.20
7844;DHT22;3967;48.702;9.326;2022-08-01T07:53:31;26.70;71.80
7844;DHT22;3967;48.702;9.326;2022-08-01T07:55:58;26.70;71.50
7844;DHT22;3967;48.702;9.326;2022-08-01T07:58:26;27.10;71.50
7844;DHT22;3967;48.702;9.326;2022-08-01T08:00:53;27.20;70.60
7844;DHT22;3967;48.702;9.326;2022-08-01T08:03:19;27.40;70.00
7844;DHT22;3967;48.702;9.326;2022-08-01T08:05:46;27.40;69.60
7844;DHT22;3967;48.702;9.326;2022-08-01T08:08:25;27.60;69.40
7844;DHT22;3967;48.702;9.326;2022-08-01T08:10:51;27.30;68.30
7844;DHT22;3967;48.702;9.326;2022-08-01T08:13:18;27.00;69.60
7844;DHT22;3967;48.702;9.326;2022-08-01T08:15:46;27.20;70.40
7844;DHT22;3967;48.702;9.326;2022-08-01T08:18:14;27.60;69.90
7844;DHT22;3967;48.702;9.326;2022-08-01T08:20:41;27.70;68.10
7844;DHT22;3967;48.702;9.326;2022-08-01T08:23:08;27.50;69.80
7844;DHT22;3967;48.702;9.326;2022-08-01T08:26:10;27.50;68.20
7844;DHT22;3967;48.702;9.326;2022-08-01T08:28:37;27.20;69.20
7844;DHT22;3967;48.702;9.326;2022-08-01T08:31:06;27.40;68.80
7844;DHT22;3967;48.702;9.326;2022-08-01T08:33:51;27.60;68.00
7844;DHT22;3967;48.702;9.326;2022-08-01T08:36:18;27.80;67.30
7844;DHT22;3967;48.702;9.326;2022-08-01T08:38:45;28.00;67.00
7844;DHT22;3967;48.702;9.326;2022-08-01T08:41:12;28.40;67.40
7844;DHT22;3967;48.702;9.326;2022-08-01T08:43:46;28.60;65.60
7844;DHT22;3967;48.702;9.326;2022-08-01T08:46:14;28.50;64.70
7844;DHT22;3967;48.702;9.326;2022-08-01T08:48:42;28.40;64.30
7844;DHT22;3967;48.702;9.326;2022-08-01T08:51:10;28.50;65.90
7844;DHT22;3967;48.702;9.326;2022-08-01T08:53:41;28.70;63.20
7844;DHT22;3967;48.702;9.326;2022-08-01T08:56:14;28.80;63.90
7844;DHT22;3967;48.702;9.326;2022-08-01T08:58:45;29.10;63.00
7844;DHT22;3967;48.702;9.326;2022-08-01T09:01:12;29.40;64.20
7844;DHT22;3967;48.702;9.326;2022-08-01T09:03:39;29.50;62.80
7844;DHT22;3967;48.702;9.326;2022-08-01T09:06:07;29.80;61.50
7844;DHT22;3967;48.702;9.326;2022-08-01T09:08:34;30.00;61.20
7844;DHT22;3967;48.702;9.326;2022-08-01T09:11:02;29.90;62.10
7844;DHT22;3967;48.702;9.326;2022-08-01T09:13:29;29.60;60.30
7844;DHT22;3967;48.702;9.326;2022-08-01T09:15:56;29.40;62.60
7844;DHT22;3967;48.702;9.326;2022-08-01T09:18:37;29.00;63.70
7844;DHT22;3967;48.702;9.326;2022-08-01T09:21:17;28.70;62.00
7844;DHT22;3967;48.702;9.326;2022-08-01T09:23:50;28.90;63.20
7844;DHT22;3967;48.702;9.326;2022-08-01T09:28:57;29.70;60.00
7844;DHT22;3967;48.702;9.326;2022-08-01T09:31:27;29.80;60.70
7844;DHT22;3967;48.702;9.326;2022-08-01T09:34:04;29.90;60.10
7844;DHT22;3967;48.702;9.326;2022-08-01T09:36:58;30.40;60.80
7844;DHT22;3967;48.702;9.326;2022-08-01T09:39:27;30.10;59.00
7844;DHT22;3967;48.702;9.326;2022-08-01T09:41:56;29.90;59.10
7844;DHT22;3967;48.702;9.326;2022-08-01T09:44:43;29.80;59.50
7844;DHT22;3967;48.702;9.326;2022-08-01T09:47:21;29.70;60.60
7844;DHT22;3967;48.702;9.326;2022-08-01T09:49:55;29.50;60.20
7844;DHT22;3967;48.702;9.326;2022-08-01T09:52:26;29.10;61.60
7844;DHT22;3967;48.702;9.326;2022-08-01T09:55:03;29.40;62.40
7844;DHT22;3967;48.702;9.326;2022-08-01T09:57:30;29.50;60.60
7844;DHT22;3967;48.702;9.326;2022-08-01T09:59:59;29.40;62.50
7844;DHT22;3967;48.702;9.326;2022-08-01T10:04:55;29.10;62.60
7844;DHT22;3967;48.702;9.326;2022-08-01T10:07:29;29.10;60.30
7844;DHT22;3967;48.702;9.326;2022-08-01T10:10:13;29.40;61.50
7844;DHT22;3967;48.702;9.326;2022-08-01T10:12:41;29.50;60.50
7844;DHT22;3967;48.702;9.326;2022-08-01T10:15:17;29.40;60.40
7844;DHT22;3967;48.702;9.326;2022-08-01T10:17:53;29.10;60.90
7844;DHT22;3967;48.702;9.326;2022-08-01T10:20:31;29.50;60.90
7844;DHT22;3967;48.702;9.326;2022-08-01T10:23:02;29.60;58.90
7844;DHT22;3967;48.702;9.326;2022-08-01T10:25:40;29.70;60.80
7844;DHT22;3967;48.702;9.326;2022-08-01T10:28:17;29.50;59.20
7844;DHT22;3967;48.702;9.326;2022-08-01T10:30:50;29.40;60.40
7844;DHT22;3967;48.702;9.326;2022-08-01T10:33:21;29.60;61.10
7844;DHT22;3967;48.702;9.326;2022-08-01T10:36:09;30.00;61.00
7844;DHT22;3967;48.702;9.326;2022-08-01T10:38:37;30.10;60.90
7844;DHT22;3967;48.702;9.326;2022-08-01T10:41:05;29.60;61.40
7844;DHT22;3967;48.702;9.326;2022-08-01T10:43:35;29.30;62.10
7844;DHT22;3967;48.702;9.326;2022-08-01T10:46:03;29.30;61.40
7844;DHT22;3967;48.702;9.326;2022-08-01T10:49:12;29.20;61.00
7844;DHT22;3967;48.702;9.326;2022-08-01T10:51:40;28.90;61.90
7844;DHT22;3967;48.702;9.326;2022-08-01T10:54:19;29.00;62.90
7844;DHT22;3967;48.702;9.326;2022-08-01T10:56:52;29.00;60.80
7844;DHT22;3967;48.702;9.326;2022-08-01T10:59:25;29.30;64.20
7844;DHT22;3967;48.702;9.326;2022-08-01T11:02:28;29.30;60.70
7844;DHT22;3967;48.702;9.326;2022-08-01T11:05:02;29.60;61.00
7844;DHT22;3967;48.702;9.326;2022-08-01T11:07:48;29.80;59.90
7844;DHT22;3967;48.702;9.326;2022-08-01T11:10:25;29.90;60.00
7844;DHT22;3967;48.702;9.326;2022-08-01T11:12:58;30.10;59.30
7844;DHT22;3967;48.702;9.326;2022-08-01T11:15:29;29.80;59.10
7844;DHT22;3967;48.702;9.326;2022-08-01T11:17:59;30.20;59.90
7844;DHT22;3967;48.702;9.326;2022-08-01T11:20:28;30.20;59.60
7844;DHT22;3967;48.702;9.326;2022-08-01T11:28:26;30.10;59.80
7844;DHT22;3967;48.702;9.326;2022-08-01T11:38:41;30.10;59.00
7844;DHT22;3967;48.702;9.326;2022-08-01T11:41:14;30.10;59.30
7844;DHT22;3967;48.702;9.326;2022-08-01T11:44:07;30.20;59.70
7844;DHT22;3967;48.702;9.326;2022-08-01T11:52:12;29.40;59.00
7844;DHT22;3967;48.702;9.326;2022-08-01T11:54:46;29.60;58.00
7844;DHT22;3967;48.702;9.326;2022-08-01T11:57:18;29.50;58.30
7844;DHT22;3967;48.702;9.326;2022-08-01T11:59:54;29.60;59.20
7844;DHT22;3967;48.702;9.326;2022-08-01T12:02:31;29.60;59.10
7844;DHT22;3967;48.702;9.326;2022-08-01T12:05:04;29.80;58.50
7844;DHT22;3967;48.702;9.326;2022-08-01T12:07:35;29.90;58.40
7844;DHT22;3967;48.702;9.326;2022-08-01T12:12:30;29.50;60.00
7844;DHT22;3967;48.702;9.326;2022-08-01T12:14:59;29.50;61.90
7844;DHT22;3967;48.702;9.326;2022-08-01T12:17:35;29.40;64.70
7844;DHT22;3967;48.702;9.326;2022-08-01T12:20:05;29.30;64.90
7844;DHT22;3967;48.702;9.326;2022-08-01T12:22:33;29.30;63.10
7844;DHT22;3967;48.702;9.326;2022-08-01T12:25:14;29.40;60.60
7844;DHT22;3967;48.702;9.326;2022-08-01T12:27:43;29.40;62.00
7844;DHT22;3967;48.702;9.326;2022-08-01T12:30:13;29.50;60.50
7844;DHT22;3967;48.702;9.326;2022-08-01T12:32:42;29.60;60.20
7844;DHT22;3967;48.702;9.326;2022-08-01T12:35:10;29.60;59.20
7844;DHT22;3967;48.702;9.326;2022-08-01T12:37:45;29.40;57.90
7844;DHT22;3967;48.702;9.326;2022-08-01T12:42:54;29.50;57.00
7844;DHT22;3967;48.702;9.326;2022-08-01T12:45:28;29.30;57.50
7844;DHT22;3967;48.702;9.326;2022-08-01T12:47:57;29.40;57.60
7844;DHT22;3967;48.702;9.326;2022-08-01T12:50:29;29.40;58.90
7844;DHT22;3967;48.702;9.326;2022-08-01T12:52:57;29.20;59.50
7844;DHT22;3967;48.702;9.326;2022-08-01T12:55:26;29.10;59.20
7844;DHT22;3967;48.702;9.326;2022-08-01T12:58:20;29.30;59.30
7844;DHT22;3967;48.702;9.326;2022-08-01T13:00:49;29.50;59.10
7844;DHT22;3967;48.702;9.326;2022-08-01T13:03:19;29.40;59.20
7844;DHT22;3967;48.702;9.326;2022-08-01T13:05:57;29.50;58.90
7844;DHT22;3967;48.702;9.326;2022-08-01T13:08:32;29.50;58.90
7844;DHT22;3967;48.702;9.326;2022-08-01T13:11:11;29.70;58.20
7844;DHT22;3967;48.702;9.326;2022-08-01T13:13:51;29.60;58.80
7844;DHT22;3967;48.702;9.326;2022-08-01T13:16:21;29.60;58.60
7844;DHT22;3967;48.702;9.326;2022-08-01T13:19:04;29.40;58.40
7844;DHT22;3967;48.702;9.326;2022-08-01T13:21:32;29.50;58.70
7844;DHT22;3967;48.702;9.326;2022-08-01T13:24:24;29.50;58.40
7844;DHT22;3967;48.702;9.326;2022-08-01T13:27:01;30.10;59.30
7844;DHT22;3967;48.702;9.326;2022-08-01T13:31:58;29.90;57.30
7844;DHT22;3967;48.702;9.326;2022-08-01T13:34:34;29.90;57.40
7844;DHT22;3967;48.702;9.326;2022-08-01T13:37:01;30.10;57.00
7844;DHT22;3967;48.702;9.326;2022-08-01T13:39:29;30.10;57.10
7844;DHT22;3967;48.702;9.326;2022-08-01T13:42:12;30.20;57.80
7844;DHT22;3967;48.702;9.326;2022-08-01T13:44:45;30.30;56.70
7844;DHT22;3967;48.702;9.326;2022-08-01T13:47:12;30.10;56.30
7844;DHT22;3967;48.702;9.326;2022-08-01T13:49:41;30.20;57.20
7844;DHT22;3967;48.702;9.326;2022-08-01T13:52:08;30.00;56.60
7844;DHT22;3967;48.702;9.326;2022-08-01T13:54:35;30.10;56.50
7844;DHT22;3967;48.702;9.326;2022-08-01T13:57:03;29.90;57.00
7844;DHT22;3967;48.702;9.326;2022-08-01T13:59:30;29.70;57.90
7844;DHT22;3967;48.702;9.326;2022-08-01T14:01:56;29.60;57.60
7844;DHT22;3967;48.702;9.326;2022-08-01T14:04:23;29.50;57.40
7844;DHT22;3967;48.702;9.326;2022-08-01T14:06:50;29.50;57.80
7844;DHT22;3967;48.702;9.326;2022-08-01T14:09:17;29.60;58.10
7844;DHT22;3967;48.702;9.326;2022-08-01T14:11:50;29.60;58.90
7844;DHT22;3967;48.702;9.326;2022-08-01T14:14:17;29.70;58.40
7844;DHT22;3967;48.702;9.326;2022-08-01T14:16:43;29.90;57.60
7844;DHT22;3967;48.702;9.326;2022-08-01T14:19:11;30.10;57.90
7844;DHT22;3967;48.702;9.326;2022-08-01T14:21:38;30.10;56.60
7844;DHT22;3967;48.702;9.326;2022-08-01T14:24:05;30.10;57.70
7844;DHT22;3967;48.702;9.326;2022-08-01T14:26:33;30.10;56.40
7844;DHT22;3967;48.702;9.326;2022-08-01T14:29:01;30.10;56.90
7844;DHT22;3967;48.702;9.326;2022-08-01T14:31:28;30.20;56.20
7844;DHT22;3967;48.702;9.326;2022-08-01T14:33:59;30.10;57.00
7844;DHT22;3967;48.702;9.326;2022-08-01T14:36:26;29.90;56.70
7844;DHT22;3967;48.702;9.326;2022-08-01T14:38:57;29.70;56.80
7844;DHT22;3967;48.702;9.326;2022-08-01T14:41:27;29.60;58.40
7844;DHT22;3967;48.702;9.326;2022-08-01T14:43:53;29.50;59.10
7844;DHT22;3967;48.702;9.326;2022-08-01T14:46:20;29.50;58.00
7844;DHT22;3967;48.702;9.326;2022-08-01T14:48:47;29.30;57.60
7844;DHT22;3967;48.702;9.326;2022-08-01T14:51:14;29.40;58.00
7844;DHT22;3967;48.702;9.326;2022-08-01T14:53:41;29.20;57.70
7844;DHT22;3967;48.702;9.326;2022-08-01T14:56:16;29.30;58.60
7844;DHT22;3967;48.702;9.326;2022-08-01T14:58:43;29.40;58.10
7844;DHT22;3967;48.702;9.326;2022-08-01T15:01:10;29.60;58.90
7844;DHT22;3967;48.702;9.326;2022-08-01T15:03:37;29.50;57.30
7844;DHT22;3967;48.702;9.326;2022-08-01T15:06:04;29.60;57.90
7844;DHT22;3967;48.702;9.326;2022-08-01T15:08:32;29.50;58.70
7844;DHT22;3967;48.702;9.326;2022-08-01T15:10:59;29.70;58.10
7844;DHT22;3967;48.702;9.326;2022-08-01T15:13:27;29.60;58.00
7844;DHT22;3967;48.702;9.326;2022-08-01T15:15:54;29.40;58.10
7844;DHT22;3967;48.702;9.326;2022-08-01T15:18:26;29.20;58.40
7844;DHT22;3967;48.702;9.326;2022-08-01T15:20:53;29.40;58.10
7844;DHT22;3967;48.702;9.326;2022-08-01T15:23:21;29.30;57.70
7844;DHT22;3967;48.702;9.326;2022-08-01T15:25:48;29.40;57.50
7844;DHT22;3967;48.702;9.326;2022-08-01T15:28:15;29.30;58.70
7844;DHT22;3967;48.702;9.326;2022-08-01T15:30:42;29.20;58.50
7844;DHT22;3967;48.702;9.326;2022-08-01T15:33:09;29.10;58.70
7844;DHT22;3967;48.702;9.326;2022-08-01T15:35:36;29.30;58.50
7844;DHT22;3967;48.702;9.326;2022-08-01T15:38:02;29.50;58.70
7844;DHT22;3967;48.702;9.326;2022-08-01T15:40:29;29.50;57.80
7844;DHT22;3967;48.702;9.326;2022-08-01T15:43:00;29.30;58.00
7844;DHT22;3967;48.702;9.326;2022-08-01T15:45:27;29.20;57.70
7844;DHT22;3967;48.702;9.326;2022-08-01T15:48:16;29.30;57.90
7844;DHT22;3967;48.702;9.326;2022-08-01T15:50:43;29.40;58.40
7844;DHT22;3967;48.702;9.326;2022-08-01T15:53:10;29.30;57.90
7844;DHT22;3967;48.702;9.326;2022-08-01T15:55:37;29.10;57.50
7844;DHT22;3967;48.702;9.326;2022-08-01T15:58:05;29.10;58.00
7844;DHT22;3967;48.702;9.326;2022-08-01T16:00:33;29.10;58.40
7844;DHT22;3967;48.702;9.326;2022-08-01T16:03:06;29.10;57.90
7844;DHT22;3967;48.702;9.326;2022-08-01T16:05:34;29.20;57.80
7844;DHT22;3967;48.702;9.326;2022-08-01T16:08:08;29.30;58.10
7844;DHT22;3967;48.702;9.326;2022-08-01T16:10:35;29.30;58.20
7844;DHT22;3967;48.702;9.326;2022-08-01T16:13:02;29.10;57.70
7844;DHT22;3967;48.702;9.326;2022-08-01T16:15:34;29.00;58.10
7844;DHT22;3967;48.702;9.326;2022-08-01T16:18:04;29.20;58.30
7844;DHT22;3967;48.702;9.326;2022-08-01T16:20:32;29.20;57.50
7844;DHT22;3967;48.702;9.326;2022-08-01T16:22:59;29.30;57.40
7844;DHT22;3967;48.702;9.326;2022-08-01T16:25:26;29.40;56.80
7844;DHT22;3967;48.702;9.326;2022-08-01T16:27:52;29.30;56.60
7844;DHT22;3967;48.702;9.326;2022-08-01T16:30:19;29.30;57.10
7844;DHT22;3967;48.702;9.326;2022-08-01T16:32:46;29.00;56.70
7844;DHT22;3967;48.702;9.326;2022-08-01T16:35:25;28.90;59.40
7844;DHT22;3967;48.702;9.326;2022-08-01T16:38:02;28.50;63.90
7844;DHT22;3967;48.702;9.326;2022-08-01T16:40:28;28.40;65.30
7844;DHT22;3967;48.702;9.326;2022-08-01T16:42:56;28.40;64.30
7844;DHT22;3967;48.702;9.326;2022-08-01T16:45:24;28.30;64.20
7844;DHT22;3967;48.702;9.326;2022-08-01T16:47:51;28.40;64.30
7844;DHT22;3967;48.702;9.326;2022-08-01T16:50:18;28.20;63.90
7844;DHT22;3967;48.702;9.326;2022-08-01T16:52:54;28.10;64.70
7844;DHT22;3967;48.702;9.326;2022-08-01T16:55:21;27.80;66.20
7844;DHT22;3967;48.702;9.326;2022-08-01T16:57:48;27.40;64.60
7844;DHT22;3967;48.702;9.326;2022-08-01T17:00:17;27.00;65.20
7844;DHT22;3967;48.702;9.326;2022-08-01T17:02:47;26.80;64.70
7844;DHT22;3967;48.702;9.326;2022-08-01T17:05:14;26.50;64.50
7844;DHT22;3967;48.702;9.326;2022-08-01T17:07:40;26.30;65.30
7844;DHT22;3967;48.702;9.326;2022-08-01T17:10:08;26.30;65.70